Have a Safe July 4th! 

Flight Track Log - Related Links

Times and Time Zones

All times are in EDT time to prevent confusion due to time zone crossing. See the N516QS flight status page for this flight to view local times or setup timezone preferences in your user account.

Time Position Orientation Groundspeed Altitude Reporting Facility
EDT Latitude Longitude Course Direction KTS MPH feet Rate Location/Type
Wed 09:09:01 AM 39.5167 -104.8333 101° East 223 257 8,000  Level Denver TRACON
Wed 09:10:07 AM 39.4833 -104.7333 113° Southeast 290 334 9,000 476 Climbing Denver TRACON
Wed 09:11:07 AM 39.5167 -104.6333 67° East 297 342 9,000 492 Level Denver TRACON
Wed 09:12:09 AM 39.5394 -104.5314 74° East 301 346 10,000 1,561 Climbing Denver Center
Wed 09:13:10 AM 39.5678 -104.4256 71° East 314 361 12,200 2,262 Climbing Denver Center
Wed 09:14:00 AM 39.3629 -103.5432 101° East  Level Estimated
Wed 09:14:11 AM 39.5986 -104.3061 71° East 347 399 14,600  Level Denver Center
Wed 09:15:12 AM 39.6358 -104.1664 71° East 380 437 17,400 2,410 Climbing Denver Center
Wed 09:16:13 AM 39.6700 -104.0331 72° East 391 450 19,500 2,213 Climbing Denver Center
Wed 09:17:14 AM 39.7069 -103.8908 71° East 415 478 21,900 2,380 Climbing Denver Center
Wed 09:18:14 AM 39.7403 -103.7392 74° East 423 487 24,300 2,281 Climbing Denver Center
Wed 09:19:15 AM 39.7294 -103.5828 95° East 437 503 26,500 1,967 Climbing Denver Center
Wed 09:20:16 AM 39.7158 -103.4200 96° East 452 520 28,300 1,721 Climbing Denver Center
Wed 09:21:17 AM 39.7022 -103.2514 96° East 467 537 30,000 1,623 Climbing Denver Center
Wed 09:22:18 AM 39.6875 -103.0761 96° East 486 559 31,600 1,574 Climbing Denver Center
Wed 09:23:19 AM 39.6736 -102.8992 96° East 494 568 33,200 1,820 Climbing Denver Center
Wed 09:24:20 AM 39.6556 -102.7047 97° East 502 578 35,300 1,869 Climbing Denver Center
Wed 09:25:21 AM 39.6406 -102.5358 97° East 494 568 37,000 885 Climbing Denver Center
Wed 09:26:22 AM 39.6236 -102.3364 96° East 500 575 37,100 488 Climbing Denver Center
Wed 09:27:24 AM 39.6072 -102.1631 97° East 505 581 38,000 927 Climbing Denver Center
Wed 09:28:25 AM 39.5928 -101.9908 96° East 504 580 39,000 1,082 Climbing Denver Center
Wed 09:29:26 AM 39.5758 -101.7903 96° East 502 578 40,200 984 Climbing Denver Center
Wed 09:30:27 AM 39.5636 -101.6239 95° East 491 565 41,000 393 Climbing Denver Center
Wed 09:31:28 AM 39.5467 -101.4269 96° East 493 567 41,000  Level Denver Center
Wed 09:32:29 AM 39.5239 -101.2594 100° East 495 570 41,000  Level Denver Center
Wed 09:33:30 AM 39.4981 -101.0917 101° East 498 573 41,000  Level Denver Center
Wed 09:34:31 AM 39.4775 -100.9531 101° East 495 570 41,000  Level Denver Center
Wed 09:35:32 AM 39.4439 -100.7308 101° East 495 570 41,000  Level Denver Center
Wed 09:36:33 AM 39.4144 -100.5375 101° East 494 568 41,000  Level Denver Center
Wed 09:37:34 AM 39.3883 -100.3728 102° East 491 565 41,000  Level Denver Center
Wed 09:38:35 AM 39.3672 -100.2350 101° East 492 566 41,000  Level Denver Center
Wed 09:39:37 AM 39.3322 -100.0153 102° East 491 565 41,000  Level Denver Center
Wed 09:40:38 AM 39.3056 -99.8508 102° East 490 564 41,000  Level Denver Center
Wed 09:41:39 AM 39.2797 -99.6850 101° East 492 566 41,000  Level Denver Center
Wed 09:42:40 AM 39.2478 -99.4939 102° East 490 564 41,000  Level Denver Center
Wed 09:43:41 AM 39.2211 -99.3269 102° East 495 570 41,000  Level Denver Center
Wed 09:44:43 AM 39.1886 -99.1350 102° East 492 566 41,000  Level Denver Center
Wed 09:45:44 AM 39.1589 -98.9553 102° East 495 570 41,000  Level Denver Center
Wed 09:46:45 AM 39.1333 -98.8067 102° East 492 566 41,000  Level Denver Center
Wed 09:47:46 AM 39.1097 -98.6692 102° East 492 566 41,000  Level Denver Center
Wed 09:48:48 AM 39.0683 -98.4314 103° East 488 562 41,000  Level Denver Center
Wed 09:50:05 AM 39.0356 -98.2400 102° East 494 568 41,000  Level Kansas City Center
Wed 09:51:07 AM 38.9997 -98.0333 103° East 493 567 41,000  Level Kansas City Center
Wed 09:52:09 AM 38.9686 -97.8606 103° East 494 568 41,000  Level Kansas City Center
Wed 09:53:12 AM 38.9375 -97.6894 103° East 493 567 41,000  Level Kansas City Center
Wed 09:54:14 AM 38.9081 -97.5247 103° East 494 568 41,000  Level Kansas City Center
Wed 09:55:16 AM 38.8714 -97.3428 104° East 498 573 41,000  Level Kansas City Center
Wed 09:56:18 AM 38.8367 -97.1700 104° East 499 574 41,000  Level Kansas City Center
Wed 09:57:20 AM 38.8025 -96.9967 104° East 500 575 41,000  Level Kansas City Center
Wed 09:58:22 AM 38.7678 -96.8231 104° East 502 578 41,000  Level Kansas City Center
Wed 09:59:24 AM 38.7278 -96.6186 104° East 495 570 41,000  Level Kansas City Center
Wed 10:00:26 AM 38.6917 -96.4556 106° East 495 570 41,000  Level Kansas City Center
Wed 10:01:28 AM 38.6536 -96.2664 104° East 494 568 41,000  Level Kansas City Center
Wed 10:02:30 AM 38.6194 -96.1039 105° East 495 570 41,000  Level Kansas City Center
Wed 10:03:32 AM 38.5803 -95.9147 105° East 494 568 41,000  Level Kansas City Center
Wed 10:04:34 AM 38.5464 -95.7531 105° East 493 567 41,000  Level Kansas City Center
Wed 10:05:36 AM 38.5053 -95.5617 105° East 504 580 41,000  Level Kansas City Center
Wed 10:06:38 AM 38.4711 -95.4011 105° East 498 573 41,000  Level Kansas City Center
Wed 10:07:40 AM 38.4306 -95.2122 105° East 498 573 41,000  Level Kansas City Center
Wed 10:08:42 AM 38.3944 -95.0494 106° East 498 573 41,000  Level Kansas City Center
Wed 10:09:44 AM 38.3536 -94.8594 105° East 499 574 41,000  Level Kansas City Center
Wed 10:10:46 AM 38.3178 -94.6969 106° East 500 575 41,000  Level Kansas City Center
Wed 10:11:48 AM 38.2764 -94.5056 105° East 502 578 41,000  Level Kansas City Center
Wed 10:12:50 AM 38.2514 -94.3386 101° East 502 578 41,000  Level Kansas City Center
Wed 10:13:52 AM 38.2306 -94.1425 98° East 501 577 41,000  Level Kansas City Center
Wed 10:14:54 AM 38.2075 -93.9756 100° East 495 570 41,000  Level Kansas City Center
Wed 10:15:56 AM 38.1850 -93.8025 99° East 495 570 41,000  Level Kansas City Center
Wed 10:16:58 AM 38.1639 -93.6294 99° East 496 571 41,000  Level Kansas City Center
Wed 10:18:00 AM 38.1406 -93.4553 100° East 498 573 41,000  Level Kansas City Center
Wed 10:19:02 AM 38.1133 -93.2467 99° East 498 573 41,000  Level Kansas City Center
Wed 10:20:05 AM 38.0911 -93.0717 99° East 501 577 41,000  Level Kansas City Center
Wed 10:21:07 AM 38.0686 -92.9003 99° East 496 571 41,000  Level Kansas City Center
Wed 10:22:09 AM 38.0447 -92.7264 100° East 498 573 41,000  Level Kansas City Center
Wed 10:23:11 AM 38.0189 -92.5469 100° East 516 594 41,000  Level Kansas City Center
Wed 10:24:13 AM 37.9933 -92.3750 101° East 509 586 41,000  Level Kansas City Center
Wed 10:25:15 AM 37.9694 -92.2003 100° East 507 583 41,000  Level Kansas City Center
Wed 10:26:17 AM 37.9422 -92.0050 100° East 505 581 41,000  Level Kansas City Center
Wed 10:27:19 AM 37.9169 -91.8311 100° East 503 579 41,000  Level Kansas City Center
Wed 10:28:21 AM 37.8917 -91.6581 100° East 502 578 41,000  Level Kansas City Center
Wed 10:29:23 AM 37.8611 -91.4492 100° East 501 577 41,000  Level Kansas City Center
Wed 10:30:25 AM 37.8350 -91.2747 101° East 503 579 41,000  Level Kansas City Center
Wed 10:31:27 AM 37.8083 -91.1003 101° East 504 580 41,000  Level Kansas City Center
Wed 10:32:29 AM 37.7803 -90.9192 101° East 506 582 41,000  Level Kansas City Center
Wed 10:33:31 AM 37.7531 -90.7456 101° East 507 583 41,000  Level Kansas City Center
Wed 10:34:33 AM 37.7256 -90.5733 101° East 506 582 41,000  Level Kansas City Center
Wed 10:35:35 AM 37.6983 -90.4000 101° East 506 582 41,000  Level Kansas City Center
Wed 10:36:37 AM 37.6653 -90.2272 104° East 515 593 41,000  Level Kansas City Center
Wed 10:37:39 AM 37.5903 -90.0333 116° Southeast 524 603 41,000  Level Kansas City Center
Wed 10:38:41 AM 37.5189 -89.8606 117° Southeast 522 601 41,000  Level Kansas City Center
Wed 10:39:43 AM 37.4528 -89.6953 117° Southeast 526 605 41,000  Level Kansas City Center
Wed 10:40:45 AM 37.3850 -89.5319 118° Southeast 524 603 41,000  Level Kansas City Center
Wed 10:41:47 AM 37.3172 -89.3722 118° Southeast 519 597 41,000  Level Kansas City Center
Wed 10:42:22 AM 37.2772 -89.2753 117° Southeast 512 589 41,000  Level Memphis Center
Wed 10:43:22 AM 37.2089 -89.1172 118° Southeast 512 589 41,000  Level Memphis Center
Wed 10:44:22 AM 37.1428 -88.9544 117° Southeast 512 589 41,000  Level Memphis Center
Wed 10:45:22 AM 37.0742 -88.7944 118° Southeast 512 589 41,000  Level Memphis Center
Wed 10:46:22 AM 37.0033 -88.6319 119° Southeast 512 589 41,000  Level Memphis Center
Wed 10:47:22 AM 36.9364 -88.4725 118° Southeast 512 589 41,000  Level Memphis Center
Wed 10:48:22 AM 36.8669 -88.3133 119° Southeast 512 589 41,000  Level Memphis Center
Wed 10:49:22 AM 36.7975 -88.1519 118° Southeast 512 589 41,000  Level Memphis Center
Wed 10:50:22 AM 36.7261 -87.9986 120° Southeast 512 589 41,000  Level Memphis Center
Wed 10:51:22 AM 36.6561 -87.8403 119° Southeast 517 595 41,000  Level Memphis Center
Wed 10:52:22 AM 36.5928 -87.7000 119° Southeast 517 595 41,000  Level Memphis Center
Wed 10:53:22 AM 36.5225 -87.5397 119° Southeast 517 595 41,000  Level Memphis Center
Wed 10:54:22 AM 36.4522 -87.3875 120° Southeast 509 586 41,000  Level Memphis Center
Wed 10:55:22 AM 36.3817 -87.2303 119° Southeast 509 586 41,000  Level Memphis Center
Wed 10:56:22 AM 36.3089 -87.0758 120° Southeast 509 586 41,000  Level Memphis Center
Wed 10:57:22 AM 36.2294 -86.9067 120° Southeast 514 592 41,000  Level Memphis Center
Wed 10:58:22 AM 36.1625 -86.7553 119° Southeast 531 611 41,000  Level Memphis Center
Wed 10:59:22 AM 36.0972 -86.5964 117° Southeast 525 604 41,000  Level Memphis Center
Wed 11:00:22 AM 36.0342 -86.4375 116° Southeast 525 604 41,000  Level Memphis Center
Wed 11:01:22 AM 35.9706 -86.2792 116° Southeast 519 597 41,000  Level Memphis Center
Wed 11:02:22 AM 35.9047 -86.1183 117° Southeast 524 603 41,000  Level Memphis Center
Wed 11:03:57 AM 35.7967 -85.8539 117° Southeast 512 589 41,000  Level Atlanta Center
Wed 11:04:57 AM 35.7300 -85.7017 118° Southeast 512 589 41,000  Level Atlanta Center
Wed 11:05:57 AM 35.6653 -85.5442 117° Southeast 512 589 41,000  Level Atlanta Center
Wed 11:06:57 AM 35.6003 -85.3872 117° Southeast 517 595 41,000  Level Atlanta Center
Wed 11:07:57 AM 35.5331 -85.2281 117° Southeast 517 595 41,000  Level Atlanta Center
Wed 11:08:57 AM 35.4656 -85.0714 118° Southeast 517 595 41,000  Level Atlanta Center
Wed 11:09:57 AM 35.3981 -84.9153 118° Southeast 522 601 41,000  Level Atlanta Center
Wed 11:10:57 AM 35.3322 -84.7592 117° Southeast 517 595 41,000  Level Atlanta Center
Wed 11:11:57 AM 35.2664 -84.6036 117° Southeast 517 595 41,000  Level Atlanta Center
Wed 11:12:57 AM 35.1981 -84.4453 118° Southeast 517 595 41,000  Level Atlanta Center
Wed 11:13:57 AM 35.1297 -84.2928 119° Southeast 522 601 41,000  Level Atlanta Center
Wed 11:14:57 AM 35.0464 -84.1528 126° Southeast 522 601 41,000  Level Atlanta Center
Wed 11:15:57 AM 34.9547 -84.0133 129° Southeast 522 601 41,000  Level Atlanta Center
Wed 11:16:57 AM 34.8647 -83.8792 129° Southeast 522 601 41,000  Level Atlanta Center
Wed 11:17:57 AM 34.7789 -83.7403 127° Southeast 517 595 41,000  Level Atlanta Center
Wed 11:18:57 AM 34.6950 -83.6119 128° Southeast 522 601 41,000 -400 Level Atlanta Center
Wed 11:19:57 AM 34.6047 -83.4811 130° Southeast 517 595 40,200 -1,050 Descending Atlanta Center
Wed 11:20:57 AM 34.5144 -83.3431 128° Southeast 517 595 38,900 -1,600 Descending Atlanta Center
Wed 11:21:57 AM 34.4239 -83.2103 130° Southeast 517 595 37,000 -2,350 Descending Atlanta Center
Wed 11:22:57 AM 34.3311 -83.0778 130° Southeast 527 606 34,200 -2,700 Descending Atlanta Center
Wed 11:23:57 AM 34.2339 -82.9308 129° Southeast 519 597 31,600 -2,250 Descending Atlanta Center
Wed 11:24:57 AM 34.1386 -82.7939 130° Southeast 524 603 29,700 -1,750 Descending Atlanta Center
Wed 11:25:57 AM 34.0494 -82.6622 129° Southeast 518 596 28,100 -1,350 Descending Atlanta Center
Wed 11:26:57 AM 33.9583 -82.5311 130° Southeast 518 596 27,000 -550 Descending Atlanta Center
Wed 11:27:57 AM 33.8689 -82.4000 129° Southeast 518 596 27,000  Level Atlanta Center
Wed 11:30:17 AM 33.6858 -82.0989 126° Southeast 497 572 27,000  Level Jacksonville Center
Wed 11:31:17 AM 33.6389 -81.9444 110° East 492 566 27,000  Level Jacksonville Center
Wed 11:32:17 AM 33.5894 -81.7906 111° Southeast 492 566 27,000 -400 Level Jacksonville Center
Wed 11:33:17 AM 33.5400 -81.6367 111° Southeast 492 566 26,200 -1,150 Descending Jacksonville Center
Wed 11:34:17 AM 33.4947 -81.4878 110° East 486 559 24,700 -1,100 Descending Jacksonville Center
Wed 11:35:17 AM 33.4492 -81.3392 110° East 480 552 24,000 -850 Descending Jacksonville Center
Wed 11:36:17 AM 33.4014 -81.1958 112° Southeast 468 539 23,000 -1,300 Descending Jacksonville Center
Wed 11:37:17 AM 33.3556 -81.0572 112° Southeast 463 533 21,400 -1,850 Descending Jacksonville Center
Wed 11:38:17 AM 33.2892 -80.9344 123° Southeast 446 513 19,300 -2,200 Descending Jacksonville Center
Wed 11:39:17 AM 33.2247 -80.8292 126° Southeast 424 488 17,000 -2,250 Descending Jacksonville Center
Wed 11:40:17 AM 33.1625 -80.7314 127° Southeast 390 449 14,800 -2,050 Descending Jacksonville Center
Wed 11:41:17 AM 33.1047 -80.6386 127° Southeast 362 417 12,900 -2,050 Descending Jacksonville Center
Wed 11:42:17 AM 33.0489 -80.5506 127° Southeast 349 402 10,700 -1,500 Descending Jacksonville Center
Wed 11:43:17 AM 32.9928 -80.4656 128° Southeast 337 388 9,900 -450 Descending Jacksonville Center
Wed 11:44:17 AM 32.9389 -80.3778 126° Southeast 331 381 9,800 -700 Descending Jacksonville Center
Wed 11:45:17 AM 32.8872 -80.2975 127° Southeast 325 374 8,500 -1,600 Descending Jacksonville Center
Wed 11:46:17 AM 32.8175 -80.2503 150° Southeast 299 344 6,600 -1,300 Descending Jacksonville Center
Wed 11:47:17 AM 32.7475 -80.2078 153° Southeast 288 331 5,900 -700 Descending Jacksonville Center
Wed 11:48:17 AM 32.7167 -80.1297 115° Southeast 253 291 5,200 -700 Descending Jacksonville Center
Wed 11:50:00 AM 32.7000 -80.0000 115° Southeast  Level FlightAware Approximate
Wed 11:57:00 AM 32.7010 -80.0033 115° Southeast  Level Estimated
Wed 11:58:00 AM 32.7000 -80.0000 115° Southeast  Level FlightAware Approximate
Wed 11:59:00 AM 32.7010 -80.0033 115° Southeast  Level Estimated
Wed 12:00:00 PM 32.7000 -80.0000 115° Southeast  Level FlightAware Approximate
Wed 12:01:00 PM 32.7010 -80.0033 115° Southeast  Level Estimated
Wed 12:02:00 PM 32.7000 -80.0000 115° Southeast  Level FlightAware Approximate
Wed 12:03:00 PM 32.7010 -80.0033 115° Southeast  Level Estimated
Wed 12:04:00 PM 32.7000 -80.0000 115° Southeast  Level FlightAware Approximate
Wed 12:05:00 PM 32.7010 -80.0033 115° Southeast  Level Estimated
Wed 12:06:00 PM 32.7000 -80.0000 115° Southeast  Level FlightAware Approximate
Wed 12:07:00 PM 32.7010 -80.0033 115° Southeast  Level Estimated
Wed 12:08:00 PM 32.7000 -80.0000 115° Southeast  Level FlightAware Approximate

Login

Don't have an account? Register now (free) for customized features, flight alerts, and more!